sensor_id;sensor_type;location;lat;lon;timestamp;temperature;humidity
79571;DHT22;69034;49.444;7.758;2023-06-14T00:03:27;20.20;34.30
79571;DHT22;69034;49.444;7.758;2023-06-14T00:07:39;20.10;34.30
79571;DHT22;69034;49.444;7.758;2023-06-14T00:11:43;20.00;34.50
79571;DHT22;69034;49.444;7.758;2023-06-14T00:15:45;19.80;34.50
79571;DHT22;69034;49.444;7.758;2023-06-14T00:19:47;19.70;34.60
79571;DHT22;69034;49.444;7.758;2023-06-14T00:23:47;19.60;34.90
79571;DHT22;69034;49.444;7.758;2023-06-14T00:27:48;19.40;35.10
79571;DHT22;69034;49.444;7.758;2023-06-14T00:31:49;19.30;35.20
79571;DHT22;69034;49.444;7.758;2023-06-14T00:35:50;19.20;35.40
79571;DHT22;69034;49.444;7.758;2023-06-14T00:39:50;19.10;35.50
79571;DHT22;69034;49.444;7.758;2023-06-14T00:43:51;19.00;35.60
79571;DHT22;69034;49.444;7.758;2023-06-14T00:47:52;18.90;35.70
79571;DHT22;69034;49.444;7.758;2023-06-14T00:51:55;18.80;35.80
79571;DHT22;69034;49.444;7.758;2023-06-14T00:55:56;18.80;36.00
79571;DHT22;69034;49.444;7.758;2023-06-14T00:59:57;18.70;35.90
79571;DHT22;69034;49.444;7.758;2023-06-14T01:03:58;18.70;35.90
79571;DHT22;69034;49.444;7.758;2023-06-14T01:12:23;18.50;36.50
79571;DHT22;69034;49.444;7.758;2023-06-14T01:16:25;18.40;36.70
79571;DHT22;69034;49.444;7.758;2023-06-14T01:20:32;18.30;36.80
79571;DHT22;69034;49.444;7.758;2023-06-14T01:24:33;18.20;37.10
79571;DHT22;69034;49.444;7.758;2023-06-14T01:28:36;18.10;37.20
79571;DHT22;69034;49.444;7.758;2023-06-14T01:32:37;18.10;37.30
79571;DHT22;69034;49.444;7.758;2023-06-14T01:36:41;18.00;37.50
79571;DHT22;69034;49.444;7.758;2023-06-14T01:40:43;18.00;37.60
79571;DHT22;69034;49.444;7.758;2023-06-14T01:44:46;17.90;37.60
79571;DHT22;69034;49.444;7.758;2023-06-14T01:48:48;17.80;37.90
79571;DHT22;69034;49.444;7.758;2023-06-14T01:52:49;17.80;38.00
79571;DHT22;69034;49.444;7.758;2023-06-14T01:56:50;17.90;38.20
79571;DHT22;69034;49.444;7.758;2023-06-14T02:00:51;18.00;38.30
79571;DHT22;69034;49.444;7.758;2023-06-14T02:04:53;18.00;38.40
79571;DHT22;69034;49.444;7.758;2023-06-14T02:08:57;18.00;38.50
79571;DHT22;69034;49.444;7.758;2023-06-14T02:12:58;18.00;38.70
79571;DHT22;69034;49.444;7.758;2023-06-14T02:16:59;18.00;38.80
79571;DHT22;69034;49.444;7.758;2023-06-14T02:21:01;17.90;39.00
79571;DHT22;69034;49.444;7.758;2023-06-14T02:25:03;17.90;39.00
79571;DHT22;69034;49.444;7.758;2023-06-14T02:29:04;17.90;39.00
79571;DHT22;69034;49.444;7.758;2023-06-14T02:33:10;17.90;39.00
79571;DHT22;69034;49.444;7.758;2023-06-14T02:37:13;17.90;39.10
79571;DHT22;69034;49.444;7.758;2023-06-14T02:41:13;17.80;39.20
79571;DHT22;69034;49.444;7.758;2023-06-14T02:45:15;17.80;39.30
79571;DHT22;69034;49.444;7.758;2023-06-14T02:49:16;17.80;39.40
79571;DHT22;69034;49.444;7.758;2023-06-14T02:53:17;17.70;39.40
79571;DHT22;69034;49.444;7.758;2023-06-14T02:57:17;17.60;39.70
79571;DHT22;69034;49.444;7.758;2023-06-14T03:01:18;17.40;39.90
79571;DHT22;69034;49.444;7.758;2023-06-14T03:05:19;17.30;40.10
79571;DHT22;69034;49.444;7.758;2023-06-14T03:09:21;17.20;40.10
79571;DHT22;69034;49.444;7.758;2023-06-14T03:13:22;17.10;40.40
79571;DHT22;69034;49.444;7.758;2023-06-14T03:17:23;17.00;40.60
79571;DHT22;69034;49.444;7.758;2023-06-14T03:21:25;16.90;40.80
79571;DHT22;69034;49.444;7.758;2023-06-14T03:25:26;16.80;41.10
79571;DHT22;69034;49.444;7.758;2023-06-14T03:29:30;16.80;41.10
79571;DHT22;69034;49.444;7.758;2023-06-14T03:33:31;16.70;41.20
79571;DHT22;69034;49.444;7.758;2023-06-14T03:37:32;16.70;41.20
79571;DHT22;69034;49.444;7.758;2023-06-14T03:41:33;16.70;41.40
79571;DHT22;69034;49.444;7.758;2023-06-14T03:45:33;16.60;41.50
79571;DHT22;69034;49.444;7.758;2023-06-14T03:49:34;16.60;41.70
79571;DHT22;69034;49.444;7.758;2023-06-14T03:53:37;16.60;41.70
79571;DHT22;69034;49.444;7.758;2023-06-14T03:57:37;16.60;41.70
79571;DHT22;69034;49.444;7.758;2023-06-14T04:01:38;16.70;41.70
79571;DHT22;69034;49.444;7.758;2023-06-14T04:05:46;16.70;41.60
79571;DHT22;69034;49.444;7.758;2023-06-14T04:09:50;16.70;41.70
79571;DHT22;69034;49.444;7.758;2023-06-14T04:13:50;16.70;41.80
79571;DHT22;69034;49.444;7.758;2023-06-14T04:17:54;16.70;41.80
79571;DHT22;69034;49.444;7.758;2023-06-14T04:22:01;16.70;41.90
79571;DHT22;69034;49.444;7.758;2023-06-14T04:26:02;16.70;41.90
79571;DHT22;69034;49.444;7.758;2023-06-14T04:30:03;16.80;41.90
79571;DHT22;69034;49.444;7.758;2023-06-14T04:34:04;16.90;41.90
79571;DHT22;69034;49.444;7.758;2023-06-14T04:38:06;16.90;42.10
79571;DHT22;69034;49.444;7.758;2023-06-14T04:42:09;17.60;42.40
79571;DHT22;69034;49.444;7.758;2023-06-14T04:46:12;18.10;41.70
79571;DHT22;69034;49.444;7.758;2023-06-14T04:50:15;18.50;41.40
79571;DHT22;69034;49.444;7.758;2023-06-14T04:54:16;18.80;41.20
79571;DHT22;69034;49.444;7.758;2023-06-14T04:58:19;19.10;40.80
79571;DHT22;69034;49.444;7.758;2023-06-14T05:02:19;19.40;40.50
79571;DHT22;69034;49.444;7.758;2023-06-14T05:06:20;19.70;40.30
79571;DHT22;69034;49.444;7.758;2023-06-14T05:10:22;19.90;40.30
79571;DHT22;69034;49.444;7.758;2023-06-14T05:14:24;20.20;40.00
79571;DHT22;69034;49.444;7.758;2023-06-14T05:18:25;20.40;39.80
79571;DHT22;69034;49.444;7.758;2023-06-14T05:22:26;20.50;39.50
79571;DHT22;69034;49.444;7.758;2023-06-14T05:26:27;20.60;39.30
79571;DHT22;69034;49.444;7.758;2023-06-14T05:30:30;20.60;39.10
79571;DHT22;69034;49.444;7.758;2023-06-14T05:34:33;20.70;39.00
79571;DHT22;69034;49.444;7.758;2023-06-14T05:38:34;20.90;38.70
79571;DHT22;69034;49.444;7.758;2023-06-14T05:42:34;21.10;38.40
79571;DHT22;69034;49.444;7.758;2023-06-14T05:46:35;21.20;38.20
79571;DHT22;69034;49.444;7.758;2023-06-14T05:50:36;21.50;37.80
79571;DHT22;69034;49.444;7.758;2023-06-14T05:54:36;21.80;37.60
79571;DHT22;69034;49.444;7.758;2023-06-14T05:58:37;22.00;37.20
79571;DHT22;69034;49.444;7.758;2023-06-14T06:02:41;22.20;37.20
79571;DHT22;69034;49.444;7.758;2023-06-14T06:06:45;22.40;37.10
79571;DHT22;69034;49.444;7.758;2023-06-14T06:10:47;22.60;37.00
79571;DHT22;69034;49.444;7.758;2023-06-14T06:14:47;22.90;36.70
79571;DHT22;69034;49.444;7.758;2023-06-14T06:18:51;23.10;36.50
79571;DHT22;69034;49.444;7.758;2023-06-14T06:22:52;23.20;36.30
79571;DHT22;69034;49.444;7.758;2023-06-14T06:26:54;23.30;36.10
79571;DHT22;69034;49.444;7.758;2023-06-14T06:30:54;23.30;36.00
79571;DHT22;69034;49.444;7.758;2023-06-14T06:34:55;23.30;35.90
79571;DHT22;69034;49.444;7.758;2023-06-14T06:38:56;23.40;35.90
79571;DHT22;69034;49.444;7.758;2023-06-14T06:42:56;23.50;35.60
79571;DHT22;69034;49.444;7.758;2023-06-14T06:46:57;23.70;35.40
79571;DHT22;69034;49.444;7.758;2023-06-14T06:50:58;23.90;35.20
79571;DHT22;69034;49.444;7.758;2023-06-14T06:54:59;24.10;34.80
79571;DHT22;69034;49.444;7.758;2023-06-14T06:59:00;24.20;34.70
79571;DHT22;69034;49.444;7.758;2023-06-14T07:03:00;24.40;34.40
79571;DHT22;69034;49.444;7.758;2023-06-14T07:07:01;24.60;34.20
79571;DHT22;69034;49.444;7.758;2023-06-14T07:11:04;24.80;33.90
79571;DHT22;69034;49.444;7.758;2023-06-14T07:15:08;24.90;33.90
79571;DHT22;69034;49.444;7.758;2023-06-14T07:19:10;25.10;33.70
79571;DHT22;69034;49.444;7.758;2023-06-14T07:23:11;25.50;33.20
79571;DHT22;69034;49.444;7.758;2023-06-14T07:27:11;25.80;32.90
79571;DHT22;69034;49.444;7.758;2023-06-14T07:31:14;26.10;32.70
79571;DHT22;69034;49.444;7.758;2023-06-14T07:35:15;26.40;32.50
79571;DHT22;69034;49.444;7.758;2023-06-14T07:39:16;26.70;32.10
79571;DHT22;69034;49.444;7.758;2023-06-14T07:43:16;27.00;31.70
79571;DHT22;69034;49.444;7.758;2023-06-14T07:47:17;27.40;31.20
79571;DHT22;69034;49.444;7.758;2023-06-14T07:51:18;27.60;31.00
79571;DHT22;69034;49.444;7.758;2023-06-14T07:55:19;27.80;30.50
79571;DHT22;69034;49.444;7.758;2023-06-14T07:59:19;27.90;30.30
79571;DHT22;69034;49.444;7.758;2023-06-14T08:03:20;28.10;30.00
79571;DHT22;69034;49.444;7.758;2023-06-14T08:07:20;28.40;29.50
79571;DHT22;69034;49.444;7.758;2023-06-14T08:11:21;28.50;29.10
79571;DHT22;69034;49.444;7.758;2023-06-14T08:15:24;28.80;28.80
79571;DHT22;69034;49.444;7.758;2023-06-14T08:19:25;29.00;28.40
79571;DHT22;69034;49.444;7.758;2023-06-14T08:23:26;29.20;28.00
79571;DHT22;69034;49.444;7.758;2023-06-14T08:27:27;29.50;27.90
79571;DHT22;69034;49.444;7.758;2023-06-14T08:31:28;29.70;27.50
79571;DHT22;69034;49.444;7.758;2023-06-14T08:35:28;30.00;27.20
79571;DHT22;69034;49.444;7.758;2023-06-14T08:39:29;30.30;26.70
79571;DHT22;69034;49.444;7.758;2023-06-14T08:43:30;30.60;26.50
79571;DHT22;69034;49.444;7.758;2023-06-14T08:47:33;30.80;26.10
79571;DHT22;69034;49.444;7.758;2023-06-14T08:51:37;30.90;26.00
79571;DHT22;69034;49.444;7.758;2023-06-14T08:55:38;31.10;25.70
79571;DHT22;69034;49.444;7.758;2023-06-14T08:59:46;31.10;25.50
79571;DHT22;69034;49.444;7.758;2023-06-14T09:03:50;31.10;25.30
79571;DHT22;69034;49.444;7.758;2023-06-14T09:07:51;31.50;25.30
79571;DHT22;69034;49.444;7.758;2023-06-14T09:11:52;31.80;25.00
79571;DHT22;69034;49.444;7.758;2023-06-14T09:15:53;32.00;24.80
79571;DHT22;69034;49.444;7.758;2023-06-14T09:19:58;32.30;24.40
79571;DHT22;69034;49.444;7.758;2023-06-14T09:23:59;32.60;19.90
79571;DHT22;69034;49.444;7.758;2023-06-14T09:28:00;32.90;19.50
79571;DHT22;69034;49.444;7.758;2023-06-14T09:32:01;33.20;18.90
79571;DHT22;69034;49.444;7.758;2023-06-14T09:36:02;33.40;18.60
79571;DHT22;69034;49.444;7.758;2023-06-14T09:40:04;33.60;18.20
79571;DHT22;69034;49.444;7.758;2023-06-14T09:44:09;33.90;17.90
79571;DHT22;69034;49.444;7.758;2023-06-14T09:48:11;34.20;17.50
79571;DHT22;69034;49.444;7.758;2023-06-14T09:52:18;34.60;17.30
79571;DHT22;69034;49.444;7.758;2023-06-14T09:56:28;35.00;16.70
79571;DHT22;69034;49.444;7.758;2023-06-14T10:00:30;35.40;16.30
79571;DHT22;69034;49.444;7.758;2023-06-14T10:04:34;35.90;15.80
79571;DHT22;69034;49.444;7.758;2023-06-14T10:08:36;36.30;15.30
79571;DHT22;69034;49.444;7.758;2023-06-14T10:12:38;36.50;14.90
79571;DHT22;69034;49.444;7.758;2023-06-14T10:17:00;37.10;14.70
79571;DHT22;69034;49.444;7.758;2023-06-14T10:25:31;37.90;14.30
79571;DHT22;69034;49.444;7.758;2023-06-14T10:29:32;38.10;13.80
79571;DHT22;69034;49.444;7.758;2023-06-14T10:33:34;38.30;13.90
79571;DHT22;69034;49.444;7.758;2023-06-14T10:37:35;38.80;13.20
79571;DHT22;69034;49.444;7.758;2023-06-14T10:41:38;39.40;13.10
79571;DHT22;69034;49.444;7.758;2023-06-14T10:50:14;40.60;12.40
79571;DHT22;69034;49.444;7.758;2023-06-14T10:54:17;41.10;12.10
79571;DHT22;69034;49.444;7.758;2023-06-14T10:58:17;41.50;12.00
79571;DHT22;69034;49.444;7.758;2023-06-14T11:02:41;41.90;11.90
79571;DHT22;69034;49.444;7.758;2023-06-14T11:06:48;42.10;11.50
79571;DHT22;69034;49.444;7.758;2023-06-14T11:10:49;42.30;11.50
79571;DHT22;69034;49.444;7.758;2023-06-14T11:14:50;42.50;11.30
79571;DHT22;69034;49.444;7.758;2023-06-14T11:18:51;42.80;11.40
79571;DHT22;69034;49.444;7.758;2023-06-14T11:22:53;43.10;11.40
79571;DHT22;69034;49.444;7.758;2023-06-14T11:26:55;43.50;11.10
79571;DHT22;69034;49.444;7.758;2023-06-14T11:31:01;43.70;10.80
79571;DHT22;69034;49.444;7.758;2023-06-14T11:35:03;43.70;10.70
79571;DHT22;69034;49.444;7.758;2023-06-14T11:39:06;43.90;10.70
79571;DHT22;69034;49.444;7.758;2023-06-14T11:43:11;44.30;10.60
79571;DHT22;69034;49.444;7.758;2023-06-14T11:47:13;44.80;10.50
79571;DHT22;69034;49.444;7.758;2023-06-14T11:51:14;45.00;10.40
79571;DHT22;69034;49.444;7.758;2023-06-14T11:55:15;45.30;10.20
79571;DHT22;69034;49.444;7.758;2023-06-14T11:59:15;45.80;9.80
79571;DHT22;69034;49.444;7.758;2023-06-14T12:03:16;45.90;9.70
79571;DHT22;69034;49.444;7.758;2023-06-14T12:07:18;46.40;9.70
79571;DHT22;69034;49.444;7.758;2023-06-14T12:11:20;46.80;9.40
79571;DHT22;69034;49.444;7.758;2023-06-14T12:15:21;46.90;9.40
79571;DHT22;69034;49.444;7.758;2023-06-14T12:19:26;47.20;9.30
79571;DHT22;69034;49.444;7.758;2023-06-14T12:23:27;47.60;9.30
79571;DHT22;69034;49.444;7.758;2023-06-14T12:27:27;47.30;9.30
79571;DHT22;69034;49.444;7.758;2023-06-14T12:31:29;48.00;9.10
79571;DHT22;69034;49.444;7.758;2023-06-14T12:35:30;48.20;9.20
79571;DHT22;69034;49.444;7.758;2023-06-14T12:39:30;48.60;9.10
79571;DHT22;69034;49.444;7.758;2023-06-14T12:43:35;49.30;9.10
79571;DHT22;69034;49.444;7.758;2023-06-14T12:47:35;47.00;9.30
79571;DHT22;69034;49.444;7.758;2023-06-14T12:51:36;48.40;9.20
79571;DHT22;69034;49.444;7.758;2023-06-14T12:55:37;49.00;9.00
79571;DHT22;69034;49.444;7.758;2023-06-14T12:59:38;49.30;8.90
79571;DHT22;69034;49.444;7.758;2023-06-14T13:03:41;49.50;8.70
79571;DHT22;69034;49.444;7.758;2023-06-14T13:07:42;49.50;8.50
79571;DHT22;69034;49.444;7.758;2023-06-14T13:11:43;49.50;8.40
79571;DHT22;69034;49.444;7.758;2023-06-14T13:15:46;49.50;8.40
79571;DHT22;69034;49.444;7.758;2023-06-14T13:19:47;49.70;8.40
79571;DHT22;69034;49.444;7.758;2023-06-14T13:23:47;50.00;8.10
79571;DHT22;69034;49.444;7.758;2023-06-14T13:27:48;50.30;8.20
79571;DHT22;69034;49.444;7.758;2023-06-14T13:31:49;50.30;8.00
79571;DHT22;69034;49.444;7.758;2023-06-14T13:35:49;50.40;8.10
79571;DHT22;69034;49.444;7.758;2023-06-14T13:39:53;47.30;8.60
79571;DHT22;69034;49.444;7.758;2023-06-14T13:43:54;48.60;8.10
79571;DHT22;69034;49.444;7.758;2023-06-14T13:47:54;49.20;7.80
79571;DHT22;69034;49.444;7.758;2023-06-14T13:51:55;49.50;7.70
79571;DHT22;69034;49.444;7.758;2023-06-14T13:55:56;49.60;7.50
79571;DHT22;69034;49.444;7.758;2023-06-14T13:59:57;49.70;7.50
79571;DHT22;69034;49.444;7.758;2023-06-14T14:04:01;50.10;7.50
79571;DHT22;69034;49.444;7.758;2023-06-14T14:08:03;50.60;7.50
79571;DHT22;69034;49.444;7.758;2023-06-14T14:12:05;51.10;7.30
79571;DHT22;69034;49.444;7.758;2023-06-14T14:16:05;49.70;7.20
79571;DHT22;69034;49.444;7.758;2023-06-14T14:20:07;49.70;7.40
79571;DHT22;69034;49.444;7.758;2023-06-14T14:24:08;50.30;7.40
79571;DHT22;69034;49.444;7.758;2023-06-14T14:28:08;50.60;7.30
79571;DHT22;69034;49.444;7.758;2023-06-14T14:32:09;50.80;7.20
79571;DHT22;69034;49.444;7.758;2023-06-14T14:36:14;50.70;7.50
79571;DHT22;69034;49.444;7.758;2023-06-14T14:40:14;50.60;7.40
79571;DHT22;69034;49.444;7.758;2023-06-14T14:44:15;50.70;7.50
79571;DHT22;69034;49.444;7.758;2023-06-14T14:48:16;50.80;7.60
79571;DHT22;69034;49.444;7.758;2023-06-14T14:52:16;50.00;7.60
79571;DHT22;69034;49.444;7.758;2023-06-14T14:56:17;44.70;8.50
79571;DHT22;69034;49.444;7.758;2023-06-14T15:00:18;46.70;8.30
79571;DHT22;69034;49.444;7.758;2023-06-14T15:04:18;47.50;8.10
79571;DHT22;69034;49.444;7.758;2023-06-14T15:08:22;47.80;8.00
79571;DHT22;69034;49.444;7.758;2023-06-14T15:12:24;47.70;8.10
79571;DHT22;69034;49.444;7.758;2023-06-14T15:16:25;47.60;8.20
79571;DHT22;69034;49.444;7.758;2023-06-14T15:20:28;46.60;8.20
79571;DHT22;69034;49.444;7.758;2023-06-14T15:24:29;47.00;8.20
79571;DHT22;69034;49.444;7.758;2023-06-14T15:28:31;47.30;8.20
79571;DHT22;69034;49.444;7.758;2023-06-14T15:32:33;47.40;8.20
79571;DHT22;69034;49.444;7.758;2023-06-14T15:36:33;47.50;8.20
79571;DHT22;69034;49.444;7.758;2023-06-14T15:40:34;47.20;8.20
79571;DHT22;69034;49.444;7.758;2023-06-14T15:44:35;47.00;8.30
79571;DHT22;69034;49.444;7.758;2023-06-14T15:48:37;46.90;8.30
79571;DHT22;69034;49.444;7.758;2023-06-14T15:52:38;46.90;8.40
79571;DHT22;69034;49.444;7.758;2023-06-14T15:56:39;46.70;8.30
79571;DHT22;69034;49.444;7.758;2023-06-14T16:00:41;46.30;8.40
79571;DHT22;69034;49.444;7.758;2023-06-14T16:04:44;46.10;8.50
79571;DHT22;69034;49.444;7.758;2023-06-14T16:08:45;46.10;8.50
79571;DHT22;69034;49.444;7.758;2023-06-14T16:12:47;46.20;8.50
79571;DHT22;69034;49.444;7.758;2023-06-14T16:16:48;46.10;8.40
79571;DHT22;69034;49.444;7.758;2023-06-14T16:20:50;46.10;8.50
79571;DHT22;69034;49.444;7.758;2023-06-14T16:24:52;46.00;8.30
79571;DHT22;69034;49.444;7.758;2023-06-14T16:28:53;45.80;8.30
79571;DHT22;69034;49.444;7.758;2023-06-14T16:32:53;45.70;8.40
79571;DHT22;69034;49.444;7.758;2023-06-14T16:36:54;45.70;8.40
79571;DHT22;69034;49.444;7.758;2023-06-14T16:40:55;45.50;8.40
79571;DHT22;69034;49.444;7.758;2023-06-14T16:44:56;45.30;8.40
79571;DHT22;69034;49.444;7.758;2023-06-14T16:48:59;45.10;8.60
79571;DHT22;69034;49.444;7.758;2023-06-14T16:53:00;44.50;8.80
79571;DHT22;69034;49.444;7.758;2023-06-14T16:57:00;43.70;8.90
79571;DHT22;69034;49.444;7.758;2023-06-14T17:01:01;43.40;9.10
79571;DHT22;69034;49.444;7.758;2023-06-14T17:05:03;43.50;9.00
79571;DHT22;69034;49.444;7.758;2023-06-14T17:09:05;43.20;9.10
79571;DHT22;69034;49.444;7.758;2023-06-14T17:13:06;43.00;9.30
79571;DHT22;69034;49.444;7.758;2023-06-14T17:17:06;42.60;9.40
79571;DHT22;69034;49.444;7.758;2023-06-14T17:21:07;42.20;9.60
79571;DHT22;69034;49.444;7.758;2023-06-14T17:25:09;41.80;9.80
79571;DHT22;69034;49.444;7.758;2023-06-14T17:29:10;41.50;9.90
79571;DHT22;69034;49.444;7.758;2023-06-14T17:33:10;41.10;10.10
79571;DHT22;69034;49.444;7.758;2023-06-14T17:37:11;40.70;10.20
79571;DHT22;69034;49.444;7.758;2023-06-14T17:41:12;40.00;10.60
79571;DHT22;69034;49.444;7.758;2023-06-14T17:45:43;39.60;10.70
79571;DHT22;69034;49.444;7.758;2023-06-14T17:49:45;39.10;11.00
79571;DHT22;69034;49.444;7.758;2023-06-14T17:53:45;38.60;11.20
79571;DHT22;69034;49.444;7.758;2023-06-14T17:57:46;38.10;11.50
79571;DHT22;69034;49.444;7.758;2023-06-14T18:01:49;37.80;11.60
79571;DHT22;69034;49.444;7.758;2023-06-14T18:05:49;37.20;11.90
79571;DHT22;69034;49.444;7.758;2023-06-14T18:09:50;36.60;12.30
79571;DHT22;69034;49.444;7.758;2023-06-14T18:13:51;36.10;12.50
79571;DHT22;69034;49.444;7.758;2023-06-14T18:17:53;35.50;12.90
79571;DHT22;69034;49.444;7.758;2023-06-14T18:21:56;34.90;13.30
79571;DHT22;69034;49.444;7.758;2023-06-14T18:25:59;34.40;13.50
79571;DHT22;69034;49.444;7.758;2023-06-14T18:29:59;34.00;13.90
79571;DHT22;69034;49.444;7.758;2023-06-14T18:34:00;33.20;14.40
79571;DHT22;69034;49.444;7.758;2023-06-14T18:38:02;32.60;14.70
79571;DHT22;69034;49.444;7.758;2023-06-14T18:42:03;32.10;15.10
79571;DHT22;69034;49.444;7.758;2023-06-14T18:46:04;31.50;15.40
79571;DHT22;69034;49.444;7.758;2023-06-14T18:50:05;30.90;16.10
79571;DHT22;69034;49.444;7.758;2023-06-14T18:54:06;30.10;16.70
79571;DHT22;69034;49.444;7.758;2023-06-14T18:58:10;29.60;17.10
79571;DHT22;69034;49.444;7.758;2023-06-14T19:02:12;29.20;17.60
79571;DHT22;69034;49.444;7.758;2023-06-14T19:06:12;28.70;18.20
79571;DHT22;69034;49.444;7.758;2023-06-14T19:10:13;28.50;18.40
79571;DHT22;69034;49.444;7.758;2023-06-14T19:14:14;28.20;18.60
79571;DHT22;69034;49.444;7.758;2023-06-14T19:18:15;28.10;18.70
79571;DHT22;69034;49.444;7.758;2023-06-14T19:22:15;27.80;19.20
79571;DHT22;69034;49.444;7.758;2023-06-14T19:26:16;27.60;19.50
79571;DHT22;69034;49.444;7.758;2023-06-14T19:30:18;27.40;19.70
79571;DHT22;69034;49.444;7.758;2023-06-14T19:34:19;27.20;24.10
79571;DHT22;69034;49.444;7.758;2023-06-14T19:38:20;27.10;24.30
79571;DHT22;69034;49.444;7.758;2023-06-14T19:42:21;26.90;24.60
79571;DHT22;69034;49.444;7.758;2023-06-14T19:46:22;26.80;25.00
79571;DHT22;69034;49.444;7.758;2023-06-14T19:50:27;26.50;25.50
79571;DHT22;69034;49.444;7.758;2023-06-14T19:54:30;26.40;25.50
79571;DHT22;69034;49.444;7.758;2023-06-14T19:58:31;26.30;25.70
79571;DHT22;69034;49.444;7.758;2023-06-14T20:02:32;26.10;25.80
79571;DHT22;69034;49.444;7.758;2023-06-14T20:06:33;25.90;26.00
79571;DHT22;69034;49.444;7.758;2023-06-14T20:10:35;25.70;26.30
79571;DHT22;69034;49.444;7.758;2023-06-14T20:14:37;25.60;26.50
79571;DHT22;69034;49.444;7.758;2023-06-14T20:18:38;25.40;26.80
79571;DHT22;69034;49.444;7.758;2023-06-14T20:22:40;25.30;27.00
79571;DHT22;69034;49.444;7.758;2023-06-14T20:26:42;25.20;27.30
79571;DHT22;69034;49.444;7.758;2023-06-14T20:30:43;25.10;27.60
79571;DHT22;69034;49.444;7.758;2023-06-14T20:34:43;25.00;27.70
79571;DHT22;69034;49.444;7.758;2023-06-14T20:38:45;24.90;27.80
79571;DHT22;69034;49.444;7.758;2023-06-14T20:42:45;24.80;28.00
79571;DHT22;69034;49.444;7.758;2023-06-14T20:46:46;24.60;28.20
79571;DHT22;69034;49.444;7.758;2023-06-14T20:50:47;24.60;28.40
79571;DHT22;69034;49.444;7.758;2023-06-14T20:54:48;24.50;28.60
79571;DHT22;69034;49.444;7.758;2023-06-14T20:58:50;24.40;28.80
79571;DHT22;69034;49.444;7.758;2023-06-14T21:02:51;24.30;29.00
79571;DHT22;69034;49.444;7.758;2023-06-14T21:06:52;24.20;29.40
79571;DHT22;69034;49.444;7.758;2023-06-14T21:10:53;24.10;29.50
79571;DHT22;69034;49.444;7.758;2023-06-14T21:15:02;24.10;29.70
79571;DHT22;69034;49.444;7.758;2023-06-14T21:19:04;24.00;30.00
79571;DHT22;69034;49.444;7.758;2023-06-14T21:23:04;23.90;30.20
79571;DHT22;69034;49.444;7.758;2023-06-14T21:27:06;24.00;30.40
79571;DHT22;69034;49.444;7.758;2023-06-14T21:31:09;24.10;30.40
79571;DHT22;69034;49.444;7.758;2023-06-14T21:35:10;24.20;30.50
79571;DHT22;69034;49.444;7.758;2023-06-14T21:39:17;24.10;30.70
79571;DHT22;69034;49.444;7.758;2023-06-14T21:43:17;24.10;31.00
79571;DHT22;69034;49.444;7.758;2023-06-14T21:47:21;24.10;31.10
79571;DHT22;69034;49.444;7.758;2023-06-14T21:51:22;24.10;31.40
79571;DHT22;69034;49.444;7.758;2023-06-14T21:55:23;24.00;31.50
79571;DHT22;69034;49.444;7.758;2023-06-14T21:59:25;24.00;31.80
79571;DHT22;69034;49.444;7.758;2023-06-14T22:03:26;23.90;31.80
79571;DHT22;69034;49.444;7.758;2023-06-14T22:07:28;23.90;32.00
79571;DHT22;69034;49.444;7.758;2023-06-14T22:11:31;23.70;32.20
79571;DHT22;69034;49.444;7.758;2023-06-14T22:15:34;23.30;32.50
79571;DHT22;69034;49.444;7.758;2023-06-14T22:19:35;23.10;32.70
79571;DHT22;69034;49.444;7.758;2023-06-14T22:23:37;22.80;32.90
79571;DHT22;69034;49.444;7.758;2023-06-14T22:27:38;22.70;33.20
79571;DHT22;69034;49.444;7.758;2023-06-14T22:36:26;22.40;33.50
79571;DHT22;69034;49.444;7.758;2023-06-14T22:40:27;22.30;33.70
79571;DHT22;69034;49.444;7.758;2023-06-14T22:44:28;22.10;33.90
79571;DHT22;69034;49.444;7.758;2023-06-14T22:48:37;21.90;34.10
79571;DHT22;69034;49.444;7.758;2023-06-14T22:57:47;21.60;34.60
79571;DHT22;69034;49.444;7.758;2023-06-14T23:01:49;21.40;34.50
79571;DHT22;69034;49.444;7.758;2023-06-14T23:05:50;21.30;34.90
79571;DHT22;69034;49.444;7.758;2023-06-14T23:09:51;21.10;35.00
79571;DHT22;69034;49.444;7.758;2023-06-14T23:13:56;21.10;35.20
79571;DHT22;69034;49.444;7.758;2023-06-14T23:17:58;20.90;35.30
79571;DHT22;69034;49.444;7.758;2023-06-14T23:21:59;20.80;35.50
79571;DHT22;69034;49.444;7.758;2023-06-14T23:26:03;20.80;35.60
79571;DHT22;69034;49.444;7.758;2023-06-14T23:30:05;20.70;35.70
79571;DHT22;69034;49.444;7.758;2023-06-14T23:34:06;20.60;36.00
79571;DHT22;69034;49.444;7.758;2023-06-14T23:38:07;20.50;36.20
79571;DHT22;69034;49.444;7.758;2023-06-14T23:42:12;20.40;36.40
79571;DHT22;69034;49.444;7.758;2023-06-14T23:46:13;20.40;36.50
79571;DHT22;69034;49.444;7.758;2023-06-14T23:50:15;20.30;36.80
79571;DHT22;69034;49.444;7.758;2023-06-14T23:54:17;20.20;37.00
79571;DHT22;69034;49.444;7.758;2023-06-14T23:58:22;20.10;37.10
